KBCT/BCT METAR and TAF weather

Enter ICAO airport designator
Station Type Date Time Source
KBCT METAR 2020/09/18 19:47 UTC NOAA

KBCT 181947Z 17006G13KT 10SM SCT042 33/25 A2985


Station Type Date Time Source
KBCT Decoded METAR 2020/09/18 19:47 UTC NOAA

Boca Raton, Boca Raton Airport, FL, United States (KBCT) 26-22-43N 080-06-28W
Sep 18, 2020 - 03:47 PM EDT / 2020.09.18 1947 UTC
Wind: from the S (170 degrees) at 7 MPH (6 KT) gusting to 15 MPH (13 KT):0
Visibility: 10 mile(s):0
Sky conditions: partly cloudy
Temperature: 91 F (33 C)
Heat index: 103.5 F (39.7 C):1
Dew Point: 77 F (25 C)
Relative Humidity: 62%
Pressure (altimeter): 29.85 in. Hg (1010 hPa)
ob: KBCT 181947Z 17006G13KT 10SM SCT042 33/25 A2985
cycle: 20

Station Type Date Time Source
KBCT TAF 2020/02/03 18:20 UTC NOAA

TAF KBCT 031720Z 0318/0418 12005KT P6SM SKC
FM040000 VRB03KT P6SM SKC
FM041400 16011KT P6SM FEW030

Example: see airport list